Time;durP1;ratioP1;P1;durP2;ratioP2;P2;SDS_P1;SDS_P2;PMS_P1;PMS_P2;Temp;Humidity;BMP_temperature;BMP_pressure;BME280_temperature;BME280_humidity;BME280_pressure;Samples;Min_cycle;Max_cycle;Signal;HPM_P1;HPM_P2
2023/01/26 00:13:13;;;;;;;25.40;11.57;;;;;;;0.45;100.00;101423.81;31570799;28;20052;-73
2023/01/26 00:28:15;;;;;;;21.53;11.80;;;;;;;0.36;100.00;101400.88;31578598;28;20112;-73
2023/01/26 00:43:17;;;;;;;28.03;13.27;;;;;;;0.24;100.00;101398.84;31548853;28;20055;-74
2023/01/26 00:58:19;;;;;;;32.33;14.57;;;;;;;0.28;100.00;101395.22;31586807;28;20101;-74
2023/01/26 01:13:21;;;;;;;27.03;13.97;;;;;;;0.22;100.00;101396.50;31579246;28;20489;-75
2023/01/26 01:28:22;;;;;;;26.67;13.87;;;;;;;-0.13;100.00;101394.97;31581516;28;20056;-74
2023/01/26 01:43:25;;;;;;;29.57;13.57;;;;;;;-0.12;100.00;101380.50;31566265;28;20048;-72
2023/01/26 01:58:30;;;;;;;30.73;15.27;;;;;;;-0.30;100.00;101370.94;31570993;28;20044;-74
2023/01/26 02:13:34;;;;;;;29.87;12.10;;;;;;;-0.37;100.00;101369.53;31561451;28;20113;-73
2023/01/26 02:28:36;;;;;;;36.07;16.23;;;;;;;-0.37;100.00;101364.19;31556045;28;20466;-73
2023/01/26 02:43:38;;;;;;;32.63;16.63;;;;;;;-0.47;100.00;101348.47;31552471;28;20060;-74
2023/01/26 02:58:40;;;;;;;34.77;16.47;;;;;;;-0.59;100.00;101343.00;31562114;28;20101;-73
2023/01/26 03:13:42;;;;;;;40.37;19.10;;;;;;;-0.60;100.00;101328.09;31579547;28;20066;-75
2023/01/26 03:28:44;;;;;;;42.77;20.80;;;;;;;-0.64;100.00;101332.47;31571163;28;20044;-75
2023/01/26 03:59:07;;;;;;;43.97;20.53;;;;;;;-0.60;100.00;101346.75;31551253;28;20389;-75
2023/01/26 04:29:36;;;;;;;52.07;21.57;;;;;;;-0.79;100.00;101348.94;31576788;28;20050;-73
2023/01/26 04:44:38;;;;;;;51.70;21.20;;;;;;;-1.01;100.00;101359.69;31591549;28;20109;-73
2023/01/26 04:59:40;;;;;;;47.83;22.77;;;;;;;-1.10;100.00;101347.13;31555036;28;20109;-74
2023/01/26 05:14:42;;;;;;;48.10;22.90;;;;;;;-1.10;100.00;101347.13;31575246;28;20116;-76
2023/01/26 05:29:44;;;;;;;42.63;21.50;;;;;;;-0.64;100.00;101364.47;31552934;28;20052;-75
2023/01/26 05:44:46;;;;;;;33.60;17.60;;;;;;;-0.61;100.00;101379.06;31586974;28;20059;-75
2023/01/26 05:59:48;;;;;;;27.87;15.40;;;;;;;0.31;100.00;101396.47;31503093;28;20539;-77
2023/01/26 06:14:50;;;;;;;31.63;14.73;;;;;;;2.39;100.00;101405.59;31478130;28;20052;-76
2023/01/26 06:29:51;;;;;;;36.80;15.50;;;;;;;3.95;100.00;101398.16;31500948;28;20129;-78
2023/01/26 06:44:53;;;;;;;46.03;18.57;;;;;;;4.54;100.00;101405.47;31457367;28;20201;-78
2023/01/26 06:59:56;;;;;;;32.70;16.67;;;;;;;5.27;100.00;101407.63;31456041;28;20048;-79
2023/01/26 07:14:58;;;;;;;44.43;17.90;;;;;;;6.26;100.00;101408.94;31497178;28;20138;-78
2023/01/26 07:30:00;;;;;;;47.53;22.00;;;;;;;6.58;100.00;101414.94;31502916;28;20182;-78
2023/01/26 07:45:02;;;;;;;44.73;19.93;;;;;;;7.43;100.00;101405.47;31497715;28;20058;-78
2023/01/26 08:00:04;;;;;;;36.07;14.93;;;;;;;8.29;89.25;101407.25;31560649;28;20121;-76
2023/01/26 08:15:06;;;;;;;29.63;13.30;;;;;;;8.90;81.12;101401.31;31591914;28;20060;-75
2023/01/26 08:30:09;;;;;;;27.60;11.50;;;;;;;9.60;75.69;101381.22;31548076;28;20056;-76
2023/01/26 08:45:12;;;;;;;20.70;10.77;;;;;;;10.15;72.05;101384.53;31558795;28;20080;-74
2023/01/26 09:00:14;;;;;;;19.13;7.27;;;;;;;9.91;62.37;101355.38;31584483;28;20052;-75
2023/01/26 09:15:16;;;;;;;11.27;5.50;;;;;;;9.95;53.47;101344.53;31565159;28;20062;-74
2023/01/26 09:30:18;;;;;;;16.10;8.00;;;;;;;10.64;53.34;101330.69;31583361;28;20060;-84
2023/01/26 09:45:29;;;;;;;22.17;10.53;;;;;;;11.14;53.55;101310.41;31552640;28;20056;-74
2023/01/26 10:00:51;;;;;;;22.73;9.70;;;;;;;11.41;52.25;101307.22;31566122;28;20417;-84
2023/01/26 10:16:07;;;;;;;26.20;11.17;;;;;;;12.01;52.32;101276.25;31564268;28;20520;-75
2023/01/26 10:31:20;;;;;;;25.10;10.50;;;;;;;11.86;53.75;101265.44;31602813;22;20049;-90
2023/01/26 10:46:39;;;;;;;22.23;9.10;;;;;;;12.15;51.57;101257.09;31358701;28;20048;-86
2023/01/26 11:02:09;;;;;;;24.03;9.33;;;;;;;12.05;52.10;101238.88;31424474;28;20056;-87
2023/01/26 11:17:24;;;;;;;19.83;8.40;;;;;;;11.98;53.93;101228.06;31380592;28;20056;-86
2023/01/26 11:32:57;;;;;;;14.93;6.57;;;;;;;11.61;53.50;101221.28;31403276;28;20475;-86
2023/01/26 11:48:02;;;;;;;12.47;6.47;;;;;;;11.79;53.02;101205.66;31393450;28;20113;-87
2023/01/26 12:03:13;;;;;;;11.17;6.77;;;;;;;11.21;53.92;101209.84;31420277;28;20132;-83
2023/01/26 12:18:28;;;;;;;11.70;6.50;;;;;;;11.77;53.70;101223.56;31382890;28;20621;-85
2023/01/26 12:33:53;;;;;;;14.03;7.43;;;;;;;11.33;57.53;101216.03;31386568;28;20456;-89
2023/01/26 12:49:11;;;;;;;16.63;7.67;;;;;;;11.10;59.46;101214.53;31389203;28;20064;-89
2023/01/26 13:04:15;;;;;;;12.73;5.97;;;;;;;7.90;91.77;101220.28;31374746;28;20052;-87
2023/01/26 13:19:43;;;;;;;9.50;5.17;;;;;;;6.81;100.00;101207.88;31423744;28;20052;-90
2023/01/26 13:34:59;;;;;;;10.20;5.60;;;;;;;5.95;100.00;101210.44;31402673;28;20140;-91
2023/01/26 13:50:21;;;;;;;41.80;17.83;;;;;;;5.85;100.00;101195.63;31407862;28;20512;-85
2023/01/26 14:05:24;;;;;;;19.50;6.50;;;;;;;5.62;100.00;101202.91;31427248;28;20115;-92
2023/01/26 18:53:10;;;;;;;24.77;12.43;;;;;;;2.72;100.00;101072.28;31298582;28;20396;-77
2023/01/26 19:08:13;;;;;;;25.10;11.20;;;;;;;2.65;100.00;101064.03;31304379;28;20488;-79
2023/01/26 19:23:15;;;;;;;24.53;12.43;;;;;;;2.68;100.00;101058.00;31275233;28;20420;-80
2023/01/26 19:38:17;;;;;;;25.43;11.17;;;;;;;2.23;100.00;101045.66;31301672;28;20404;-79
2023/01/26 19:53:19;;;;;;;30.20;14.47;;;;;;;2.31;100.00;101049.31;31286925;28;20563;-78
2023/01/26 20:08:21;;;;;;;25.70;12.23;;;;;;;2.29;100.00;101038.94;31190760;28;20057;-82
2023/01/26 20:23:23;;;;;;;31.60;14.40;;;;;;;2.20;100.00;101027.56;31237005;28;20053;-82
2023/01/26 20:38:25;;;;;;;31.83;13.77;;;;;;;2.22;100.00;101025.34;31214846;28;20072;-82
2023/01/26 20:53:27;;;;;;;30.50;12.87;;;;;;;2.03;100.00;101017.13;31255983;28;20057;-83
2023/01/26 21:08:30;;;;;;;32.80;13.97;;;;;;;1.64;100.00;101023.97;31260278;28;20045;-83
2023/01/26 21:23:33;;;;;;;33.80;13.30;;;;;;;1.19;100.00;101010.66;31263433;28;20049;-82
2023/01/26 21:38:38;;;;;;;25.53;12.80;;;;;;;0.54;100.00;100997.03;31214640;28;20564;-81
2023/01/26 21:53:40;;;;;;;34.53;15.80;;;;;;;0.19;100.00;100985.09;31228724;28;20050;-83
2023/01/26 22:08:41;;;;;;;36.67;14.87;;;;;;;0.47;100.00;100959.41;31196313;28;20115;-82
2023/01/26 22:23:44;;;;;;;29.23;14.80;;;;;;;0.62;100.00;100966.78;31254446;28;20099;-83
2023/01/26 22:38:47;;;;;;;25.87;10.63;;;;;;;0.81;100.00;100958.25;31210336;28;20053;-82
2023/01/26 23:09:53;;;;;;;24.67;12.37;;;;;;;0.69;100.00;100947.56;31191587;28;20084;-82
2023/01/26 23:40:16;;;;;;;33.77;15.20;;;;;;;0.51;100.00;100954.16;31243652;28;20056;-82
2023/01/26 23:55:18;;;;;;;27.87;14.13;;;;;;;-0.31;100.00;100932.56;31243643;28;20046;-83
